sensor_id;sensor_type;location;lat;lon;timestamp;P1;durP1;ratioP1;P2;durP2;ratioP2
5060;SDS011;2549;52.128;21.068;2023-04-05T00:00:26;28.58;;;10.80;;
5060;SDS011;2549;52.128;21.068;2023-04-05T00:02:53;24.20;;;10.60;;
5060;SDS011;2549;52.128;21.068;2023-04-05T00:05:26;17.92;;;8.85;;
5060;SDS011;2549;52.128;21.068;2023-04-05T00:07:56;25.80;;;10.43;;
5060;SDS011;2549;52.128;21.068;2023-04-05T00:10:24;25.20;;;10.93;;
5060;SDS011;2549;52.128;21.068;2023-04-05T00:12:52;25.42;;;10.93;;
5060;SDS011;2549;52.128;21.068;2023-04-05T00:15:20;29.58;;;13.23;;
5060;SDS011;2549;52.128;21.068;2023-04-05T00:17:47;28.05;;;11.35;;
5060;SDS011;2549;52.128;21.068;2023-04-05T00:20:14;26.52;;;11.90;;
5060;SDS011;2549;52.128;21.068;2023-04-05T00:22:41;22.45;;;11.02;;
5060;SDS011;2549;52.128;21.068;2023-04-05T00:25:12;32.55;;;10.98;;
5060;SDS011;2549;52.128;21.068;2023-04-05T00:27:39;39.95;;;12.23;;
5060;SDS011;2549;52.128;21.068;2023-04-05T00:30:09;23.35;;;10.93;;
5060;SDS011;2549;52.128;21.068;2023-04-05T00:32:36;23.35;;;11.00;;
5060;SDS011;2549;52.128;21.068;2023-04-05T00:35:03;26.63;;;11.88;;
5060;SDS011;2549;52.128;21.068;2023-04-05T00:37:31;31.42;;;12.85;;
5060;SDS011;2549;52.128;21.068;2023-04-05T00:39:57;29.38;;;12.90;;
5060;SDS011;2549;52.128;21.068;2023-04-05T00:42:24;28.65;;;12.80;;
5060;SDS011;2549;52.128;21.068;2023-04-05T00:44:51;21.75;;;10.80;;
5060;SDS011;2549;52.128;21.068;2023-04-05T00:47:18;27.52;;;11.27;;
5060;SDS011;2549;52.128;21.068;2023-04-05T00:49:45;30.67;;;12.30;;
5060;SDS011;2549;52.128;21.068;2023-04-05T00:52:11;21.25;;;11.32;;
5060;SDS011;2549;52.128;21.068;2023-04-05T00:54:40;27.13;;;12.18;;
5060;SDS011;2549;52.128;21.068;2023-04-05T00:57:08;32.40;;;11.32;;
5060;SDS011;2549;52.128;21.068;2023-04-05T00:59:36;25.33;;;11.60;;
5060;SDS011;2549;52.128;21.068;2023-04-05T01:02:17;29.13;;;11.82;;
5060;SDS011;2549;52.128;21.068;2023-04-05T01:04:46;27.38;;;11.52;;
5060;SDS011;2549;52.128;21.068;2023-04-05T01:07:28;31.15;;;12.85;;
5060;SDS011;2549;52.128;21.068;2023-04-05T01:10:03;32.65;;;12.80;;
5060;SDS011;2549;52.128;21.068;2023-04-05T01:12:34;31.88;;;13.40;;
5060;SDS011;2549;52.128;21.068;2023-04-05T01:15:03;28.33;;;11.63;;
5060;SDS011;2549;52.128;21.068;2023-04-05T01:17:32;31.75;;;13.23;;
5060;SDS011;2549;52.128;21.068;2023-04-05T01:20:06;31.55;;;11.82;;
5060;SDS011;2549;52.128;21.068;2023-04-05T01:22:43;34.15;;;13.68;;
5060;SDS011;2549;52.128;21.068;2023-04-05T01:28:34;24.45;;;11.73;;
5060;SDS011;2549;52.128;21.068;2023-04-05T01:33:55;36.70;;;14.27;;
5060;SDS011;2549;52.128;21.068;2023-04-05T01:36:35;28.58;;;11.52;;
5060;SDS011;2549;52.128;21.068;2023-04-05T01:39:14;30.83;;;12.00;;
5060;SDS011;2549;52.128;21.068;2023-04-05T01:41:45;32.20;;;12.15;;
5060;SDS011;2549;52.128;21.068;2023-04-05T01:44:12;24.08;;;11.38;;
5060;SDS011;2549;52.128;21.068;2023-04-05T01:46:39;29.95;;;13.15;;
5060;SDS011;2549;52.128;21.068;2023-04-05T01:49:12;28.33;;;11.88;;
5060;SDS011;2549;52.128;21.068;2023-04-05T01:51:49;28.45;;;12.30;;
5060;SDS011;2549;52.128;21.068;2023-04-05T01:54:19;28.05;;;11.98;;
5060;SDS011;2549;52.128;21.068;2023-04-05T01:56:46;33.28;;;11.55;;
5060;SDS011;2549;52.128;21.068;2023-04-05T01:59:12;26.83;;;11.70;;
5060;SDS011;2549;52.128;21.068;2023-04-05T02:01:41;33.20;;;12.10;;
5060;SDS011;2549;52.128;21.068;2023-04-05T02:04:13;25.63;;;11.52;;
5060;SDS011;2549;52.128;21.068;2023-04-05T02:06:41;20.05;;;9.30;;
5060;SDS011;2549;52.128;21.068;2023-04-05T02:09:10;32.45;;;9.90;;
5060;SDS011;2549;52.128;21.068;2023-04-05T02:11:40;21.90;;;9.40;;
5060;SDS011;2549;52.128;21.068;2023-04-05T02:14:06;21.98;;;10.05;;
5060;SDS011;2549;52.128;21.068;2023-04-05T02:16:34;26.98;;;10.50;;
5060;SDS011;2549;52.128;21.068;2023-04-05T02:19:01;23.02;;;10.05;;
5060;SDS011;2549;52.128;21.068;2023-04-05T02:21:29;20.85;;;9.73;;
5060;SDS011;2549;52.128;21.068;2023-04-05T02:23:57;21.58;;;8.98;;
5060;SDS011;2549;52.128;21.068;2023-04-05T02:26:23;24.55;;;9.90;;
5060;SDS011;2549;52.128;21.068;2023-04-05T02:28:53;22.58;;;9.90;;
5060;SDS011;2549;52.128;21.068;2023-04-05T02:31:20;15.95;;;9.02;;
5060;SDS011;2549;52.128;21.068;2023-04-05T02:33:47;19.20;;;9.35;;
5060;SDS011;2549;52.128;21.068;2023-04-05T02:36:14;18.33;;;9.13;;
5060;SDS011;2549;52.128;21.068;2023-04-05T02:38:41;18.52;;;9.13;;
5060;SDS011;2549;52.128;21.068;2023-04-05T02:41:09;20.55;;;7.32;;
5060;SDS011;2549;52.128;21.068;2023-04-05T02:43:37;16.85;;;8.10;;
5060;SDS011;2549;52.128;21.068;2023-04-05T02:46:04;16.50;;;7.78;;
5060;SDS011;2549;52.128;21.068;2023-04-05T02:48:31;19.08;;;8.77;;
5060;SDS011;2549;52.128;21.068;2023-04-05T02:50:58;18.55;;;8.25;;
5060;SDS011;2549;52.128;21.068;2023-04-05T02:53:25;17.00;;;8.40;;
5060;SDS011;2549;52.128;21.068;2023-04-05T02:55:52;16.50;;;8.50;;
5060;SDS011;2549;52.128;21.068;2023-04-05T02:58:20;23.98;;;7.32;;
5060;SDS011;2549;52.128;21.068;2023-04-05T03:00:47;15.77;;;6.72;;
5060;SDS011;2549;52.128;21.068;2023-04-05T03:03:17;15.75;;;7.95;;
5060;SDS011;2549;52.128;21.068;2023-04-05T03:05:44;13.85;;;7.82;;
5060;SDS011;2549;52.128;21.068;2023-04-05T03:08:12;14.50;;;7.90;;
5060;SDS011;2549;52.128;21.068;2023-04-05T03:10:47;16.25;;;7.78;;
5060;SDS011;2549;52.128;21.068;2023-04-05T03:13:16;14.27;;;6.60;;
5060;SDS011;2549;52.128;21.068;2023-04-05T03:15:43;13.25;;;5.88;;
5060;SDS011;2549;52.128;21.068;2023-04-05T03:18:10;15.30;;;6.47;;
5060;SDS011;2549;52.128;21.068;2023-04-05T03:20:36;16.05;;;6.38;;
5060;SDS011;2549;52.128;21.068;2023-04-05T03:23:08;11.65;;;6.63;;
5060;SDS011;2549;52.128;21.068;2023-04-05T03:25:36;13.65;;;6.72;;
5060;SDS011;2549;52.128;21.068;2023-04-05T03:28:03;9.73;;;5.68;;
5060;SDS011;2549;52.128;21.068;2023-04-05T03:30:31;9.18;;;5.78;;
5060;SDS011;2549;52.128;21.068;2023-04-05T03:32:59;13.63;;;6.47;;
5060;SDS011;2549;52.128;21.068;2023-04-05T03:35:29;19.35;;;6.45;;
5060;SDS011;2549;52.128;21.068;2023-04-05T03:37:56;15.43;;;6.72;;
5060;SDS011;2549;52.128;21.068;2023-04-05T03:40:23;12.13;;;5.82;;
5060;SDS011;2549;52.128;21.068;2023-04-05T03:42:50;12.70;;;6.72;;
5060;SDS011;2549;52.128;21.068;2023-04-05T03:45:17;25.08;;;7.13;;
5060;SDS011;2549;52.128;21.068;2023-04-05T03:47:49;14.43;;;6.60;;
5060;SDS011;2549;52.128;21.068;2023-04-05T03:50:17;18.67;;;6.47;;
5060;SDS011;2549;52.128;21.068;2023-04-05T03:52:43;10.65;;;5.53;;
5060;SDS011;2549;52.128;21.068;2023-04-05T03:55:11;11.88;;;6.47;;
5060;SDS011;2549;52.128;21.068;2023-04-05T03:57:42;20.63;;;7.40;;
5060;SDS011;2549;52.128;21.068;2023-04-05T04:00:09;13.00;;;6.22;;
5060;SDS011;2549;52.128;21.068;2023-04-05T04:02:43;17.35;;;7.00;;
5060;SDS011;2549;52.128;21.068;2023-04-05T04:05:10;12.07;;;6.40;;
5060;SDS011;2549;52.128;21.068;2023-04-05T04:07:39;12.68;;;6.75;;
5060;SDS011;2549;52.128;21.068;2023-04-05T04:10:07;14.60;;;6.60;;
5060;SDS011;2549;52.128;21.068;2023-04-05T04:12:35;15.73;;;6.57;;
5060;SDS011;2549;52.128;21.068;2023-04-05T04:15:02;18.05;;;7.15;;
5060;SDS011;2549;52.128;21.068;2023-04-05T04:17:31;14.00;;;6.82;;
5060;SDS011;2549;52.128;21.068;2023-04-05T04:19:59;13.60;;;7.20;;
5060;SDS011;2549;52.128;21.068;2023-04-05T04:22:27;19.73;;;8.18;;
5060;SDS011;2549;52.128;21.068;2023-04-05T04:24:58;14.77;;;7.90;;
5060;SDS011;2549;52.128;21.068;2023-04-05T04:27:30;19.33;;;8.23;;
5060;SDS011;2549;52.128;21.068;2023-04-05T04:29:57;15.10;;;8.25;;
5060;SDS011;2549;52.128;21.068;2023-04-05T04:32:29;19.35;;;8.77;;
5060;SDS011;2549;52.128;21.068;2023-04-05T04:35:15;15.43;;;8.15;;
5060;SDS011;2549;52.128;21.068;2023-04-05T04:37:46;17.27;;;8.55;;
5060;SDS011;2549;52.128;21.068;2023-04-05T04:40:18;22.67;;;9.50;;
5060;SDS011;2549;52.128;21.068;2023-04-05T04:42:44;18.77;;;9.48;;
5060;SDS011;2549;52.128;21.068;2023-04-05T04:45:15;24.35;;;10.05;;
5060;SDS011;2549;52.128;21.068;2023-04-05T04:47:44;20.17;;;8.95;;
5060;SDS011;2549;52.128;21.068;2023-04-05T04:50:15;25.42;;;9.52;;
5060;SDS011;2549;52.128;21.068;2023-04-05T04:52:45;22.02;;;9.32;;
5060;SDS011;2549;52.128;21.068;2023-04-05T04:55:13;17.98;;;8.98;;
5060;SDS011;2549;52.128;21.068;2023-04-05T04:57:40;20.58;;;8.80;;
5060;SDS011;2549;52.128;21.068;2023-04-05T05:00:08;20.98;;;9.32;;
5060;SDS011;2549;52.128;21.068;2023-04-05T05:02:38;21.70;;;9.65;;
5060;SDS011;2549;52.128;21.068;2023-04-05T05:05:06;20.13;;;9.52;;
5060;SDS011;2549;52.128;21.068;2023-04-05T05:07:34;22.40;;;10.73;;
5060;SDS011;2549;52.128;21.068;2023-04-05T05:10:02;23.90;;;10.07;;
5060;SDS011;2549;52.128;21.068;2023-04-05T05:12:30;25.00;;;10.88;;
5060;SDS011;2549;52.128;21.068;2023-04-05T05:14:59;21.63;;;10.82;;
5060;SDS011;2549;52.128;21.068;2023-04-05T05:17:30;36.38;;;12.30;;
5060;SDS011;2549;52.128;21.068;2023-04-05T05:20:03;33.80;;;12.85;;
5060;SDS011;2549;52.128;21.068;2023-04-05T05:22:36;24.85;;;10.90;;
5060;SDS011;2549;52.128;21.068;2023-04-05T05:25:04;27.20;;;12.23;;
5060;SDS011;2549;52.128;21.068;2023-04-05T05:27:32;38.90;;;12.32;;
5060;SDS011;2549;52.128;21.068;2023-04-05T05:29:59;28.15;;;12.35;;
5060;SDS011;2549;52.128;21.068;2023-04-05T05:32:27;29.65;;;12.18;;
5060;SDS011;2549;52.128;21.068;2023-04-05T05:34:57;31.65;;;13.40;;
5060;SDS011;2549;52.128;21.068;2023-04-05T05:37:30;36.15;;;13.43;;
5060;SDS011;2549;52.128;21.068;2023-04-05T05:39:59;31.00;;;13.65;;
5060;SDS011;2549;52.128;21.068;2023-04-05T05:42:27;33.65;;;13.35;;
5060;SDS011;2549;52.128;21.068;2023-04-05T05:45:03;32.20;;;13.10;;
5060;SDS011;2549;52.128;21.068;2023-04-05T05:47:31;28.75;;;10.32;;
5060;SDS011;2549;52.128;21.068;2023-04-05T05:49:59;28.48;;;12.30;;
5060;SDS011;2549;52.128;21.068;2023-04-05T05:52:27;29.63;;;13.52;;
5060;SDS011;2549;52.128;21.068;2023-04-05T05:54:54;25.13;;;11.75;;
5060;SDS011;2549;52.128;21.068;2023-04-05T05:57:21;26.55;;;11.77;;
5060;SDS011;2549;52.128;21.068;2023-04-05T05:59:48;27.40;;;12.85;;
5060;SDS011;2549;52.128;21.068;2023-04-05T06:02:15;26.02;;;12.00;;
5060;SDS011;2549;52.128;21.068;2023-04-05T06:04:42;27.90;;;11.40;;
5060;SDS011;2549;52.128;21.068;2023-04-05T06:07:09;21.02;;;11.38;;
5060;SDS011;2549;52.128;21.068;2023-04-05T06:09:36;24.95;;;11.70;;
5060;SDS011;2549;52.128;21.068;2023-04-05T06:12:03;26.83;;;12.15;;
5060;SDS011;2549;52.128;21.068;2023-04-05T06:14:30;26.40;;;12.25;;
5060;SDS011;2549;52.128;21.068;2023-04-05T06:16:56;23.83;;;10.98;;
5060;SDS011;2549;52.128;21.068;2023-04-05T06:19:23;26.67;;;11.63;;
5060;SDS011;2549;52.128;21.068;2023-04-05T06:21:50;24.13;;;10.77;;
5060;SDS011;2549;52.128;21.068;2023-04-05T06:24:17;23.20;;;10.80;;
5060;SDS011;2549;52.128;21.068;2023-04-05T06:26:44;26.42;;;10.77;;
5060;SDS011;2549;52.128;21.068;2023-04-05T06:29:11;20.38;;;10.35;;
5060;SDS011;2549;52.128;21.068;2023-04-05T06:31:38;25.33;;;11.85;;
5060;SDS011;2549;52.128;21.068;2023-04-05T06:34:06;27.73;;;12.23;;
5060;SDS011;2549;52.128;21.068;2023-04-05T06:36:33;27.90;;;12.15;;
5060;SDS011;2549;52.128;21.068;2023-04-05T06:39:00;27.92;;;10.35;;
5060;SDS011;2549;52.128;21.068;2023-04-05T06:41:27;22.73;;;10.15;;
5060;SDS011;2549;52.128;21.068;2023-04-05T06:43:54;18.83;;;9.00;;
5060;SDS011;2549;52.128;21.068;2023-04-05T06:46:21;18.85;;;9.95;;
5060;SDS011;2549;52.128;21.068;2023-04-05T06:48:50;22.95;;;10.40;;
5060;SDS011;2549;52.128;21.068;2023-04-05T06:51:17;18.42;;;9.02;;
5060;SDS011;2549;52.128;21.068;2023-04-05T06:53:44;22.00;;;9.82;;
5060;SDS011;2549;52.128;21.068;2023-04-05T06:56:11;16.45;;;9.00;;
5060;SDS011;2549;52.128;21.068;2023-04-05T06:58:38;20.88;;;10.32;;
5060;SDS011;2549;52.128;21.068;2023-04-05T07:01:08;23.00;;;9.65;;
5060;SDS011;2549;52.128;21.068;2023-04-05T07:03:35;17.10;;;9.45;;
5060;SDS011;2549;52.128;21.068;2023-04-05T07:06:02;20.83;;;9.93;;
5060;SDS011;2549;52.128;21.068;2023-04-05T07:08:31;18.33;;;8.98;;
5060;SDS011;2549;52.128;21.068;2023-04-05T07:10:58;22.17;;;9.20;;
5060;SDS011;2549;52.128;21.068;2023-04-05T07:13:25;20.23;;;9.88;;
5060;SDS011;2549;52.128;21.068;2023-04-05T07:15:58;22.35;;;10.80;;
5060;SDS011;2549;52.128;21.068;2023-04-05T07:18:27;21.02;;;9.35;;
5060;SDS011;2549;52.128;21.068;2023-04-05T07:20:55;20.40;;;9.65;;
5060;SDS011;2549;52.128;21.068;2023-04-05T07:23:26;35.33;;;8.65;;
5060;SDS011;2549;52.128;21.068;2023-04-05T07:25:54;28.05;;;9.30;;
5060;SDS011;2549;52.128;21.068;2023-04-05T07:28:25;20.38;;;9.88;;
5060;SDS011;2549;52.128;21.068;2023-04-05T07:30:52;18.02;;;9.05;;
5060;SDS011;2549;52.128;21.068;2023-04-05T07:33:19;31.17;;;9.18;;
5060;SDS011;2549;52.128;21.068;2023-04-05T07:35:50;17.50;;;8.05;;
5060;SDS011;2549;52.128;21.068;2023-04-05T07:38:19;23.52;;;9.05;;
5060;SDS011;2549;52.128;21.068;2023-04-05T07:40:47;13.88;;;7.15;;
5060;SDS011;2549;52.128;21.068;2023-04-05T07:43:15;12.23;;;6.82;;
5060;SDS011;2549;52.128;21.068;2023-04-05T07:45:44;13.70;;;6.90;;
5060;SDS011;2549;52.128;21.068;2023-04-05T07:48:11;12.45;;;7.03;;
5060;SDS011;2549;52.128;21.068;2023-04-05T07:50:38;15.52;;;7.22;;
5060;SDS011;2549;52.128;21.068;2023-04-05T07:53:06;17.63;;;6.95;;
5060;SDS011;2549;52.128;21.068;2023-04-05T07:55:36;11.10;;;7.13;;
5060;SDS011;2549;52.128;21.068;2023-04-05T07:58:04;19.15;;;9.20;;
5060;SDS011;2549;52.128;21.068;2023-04-05T08:00:30;20.58;;;9.55;;
5060;SDS011;2549;52.128;21.068;2023-04-05T08:02:57;17.17;;;8.05;;
5060;SDS011;2549;52.128;21.068;2023-04-05T08:05:27;12.23;;;5.70;;
5060;SDS011;2549;52.128;21.068;2023-04-05T08:07:54;9.75;;;4.32;;
5060;SDS011;2549;52.128;21.068;2023-04-05T08:10:23;14.35;;;6.25;;
5060;SDS011;2549;52.128;21.068;2023-04-05T08:12:51;14.50;;;5.43;;
5060;SDS011;2549;52.128;21.068;2023-04-05T08:15:18;8.88;;;4.75;;
5060;SDS011;2549;52.128;21.068;2023-04-05T08:17:45;11.77;;;7.22;;
5060;SDS011;2549;52.128;21.068;2023-04-05T08:20:15;16.65;;;7.18;;
5060;SDS011;2549;52.128;21.068;2023-04-05T08:22:43;16.70;;;7.57;;
5060;SDS011;2549;52.128;21.068;2023-04-05T08:25:10;8.82;;;5.15;;
5060;SDS011;2549;52.128;21.068;2023-04-05T08:27:37;15.02;;;6.10;;
5060;SDS011;2549;52.128;21.068;2023-04-05T08:30:04;11.35;;;4.30;;
5060;SDS011;2549;52.128;21.068;2023-04-05T08:32:31;4.95;;;3.55;;
5060;SDS011;2549;52.128;21.068;2023-04-05T08:34:59;6.30;;;4.57;;
5060;SDS011;2549;52.128;21.068;2023-04-05T08:37:26;9.27;;;4.95;;
5060;SDS011;2549;52.128;21.068;2023-04-05T08:39:53;10.77;;;5.70;;
5060;SDS011;2549;52.128;21.068;2023-04-05T08:42:25;7.97;;;4.25;;
5060;SDS011;2549;52.128;21.068;2023-04-05T08:45:08;5.18;;;3.70;;
5060;SDS011;2549;52.128;21.068;2023-04-05T08:47:36;7.85;;;4.55;;
5060;SDS011;2549;52.128;21.068;2023-04-05T08:50:04;6.15;;;4.47;;
5060;SDS011;2549;52.128;21.068;2023-04-05T08:52:32;10.88;;;4.30;;
5060;SDS011;2549;52.128;21.068;2023-04-05T08:54:59;8.68;;;3.90;;
5060;SDS011;2549;52.128;21.068;2023-04-05T08:57:26;8.52;;;3.85;;
5060;SDS011;2549;52.128;21.068;2023-04-05T08:59:56;8.27;;;3.22;;
5060;SDS011;2549;52.128;21.068;2023-04-05T09:02:26;4.63;;;3.75;;
5060;SDS011;2549;52.128;21.068;2023-04-05T09:04:54;8.95;;;2.85;;
5060;SDS011;2549;52.128;21.068;2023-04-05T09:07:22;4.57;;;3.63;;
5060;SDS011;2549;52.128;21.068;2023-04-05T09:09:52;8.45;;;3.85;;
5060;SDS011;2549;52.128;21.068;2023-04-05T09:12:21;9.25;;;4.65;;
5060;SDS011;2549;52.128;21.068;2023-04-05T09:14:49;7.28;;;3.85;;
5060;SDS011;2549;52.128;21.068;2023-04-05T09:17:17;4.50;;;3.75;;
5060;SDS011;2549;52.128;21.068;2023-04-05T09:19:44;9.85;;;4.57;;
5060;SDS011;2549;52.128;21.068;2023-04-05T09:22:11;9.98;;;4.63;;
5060;SDS011;2549;52.128;21.068;2023-04-05T09:24:40;7.43;;;4.43;;
5060;SDS011;2549;52.128;21.068;2023-04-05T09:27:09;12.15;;;4.45;;
5060;SDS011;2549;52.128;21.068;2023-04-05T09:29:37;12.88;;;4.15;;
5060;SDS011;2549;52.128;21.068;2023-04-05T09:32:06;8.43;;;4.57;;
5060;SDS011;2549;52.128;21.068;2023-04-05T09:34:40;10.93;;;6.18;;
5060;SDS011;2549;52.128;21.068;2023-04-05T09:40:46;6.03;;;4.32;;
5060;SDS011;2549;52.128;21.068;2023-04-05T09:48:57;11.43;;;4.75;;
5060;SDS011;2549;52.128;21.068;2023-04-05T09:51:30;7.60;;;5.03;;
5060;SDS011;2549;52.128;21.068;2023-04-05T09:54:02;8.52;;;4.85;;
5060;SDS011;2549;52.128;21.068;2023-04-05T09:56:31;11.88;;;4.95;;
5060;SDS011;2549;52.128;21.068;2023-04-05T10:01:36;6.70;;;4.72;;
5060;SDS011;2549;52.128;21.068;2023-04-05T10:04:06;6.85;;;3.92;;
5060;SDS011;2549;52.128;21.068;2023-04-05T10:06:34;17.77;;;6.00;;
5060;SDS011;2549;52.128;21.068;2023-04-05T10:09:03;11.02;;;5.63;;
5060;SDS011;2549;52.128;21.068;2023-04-05T10:11:32;9.52;;;5.35;;
5060;SDS011;2549;52.128;21.068;2023-04-05T10:14:11;12.70;;;6.68;;
5060;SDS011;2549;52.128;21.068;2023-04-05T10:16:43;15.18;;;5.90;;
5060;SDS011;2549;52.128;21.068;2023-04-05T10:19:39;15.95;;;6.20;;
5060;SDS011;2549;52.128;21.068;2023-04-05T10:22:10;18.75;;;5.32;;
5060;SDS011;2549;52.128;21.068;2023-04-05T10:24:44;10.88;;;4.82;;
5060;SDS011;2549;52.128;21.068;2023-04-05T10:27:22;11.50;;;5.15;;
5060;SDS011;2549;52.128;21.068;2023-04-05T10:30:04;8.93;;;5.00;;
5060;SDS011;2549;52.128;21.068;2023-04-05T10:40:43;15.70;;;4.78;;
5060;SDS011;2549;52.128;21.068;2023-04-05T10:43:18;16.63;;;5.40;;
5060;SDS011;2549;52.128;21.068;2023-04-05T10:45:48;6.68;;;4.43;;
5060;SDS011;2549;52.128;21.068;2023-04-05T10:51:15;14.15;;;6.43;;
5060;SDS011;2549;52.128;21.068;2023-04-05T10:53:42;11.68;;;6.50;;
5060;SDS011;2549;52.128;21.068;2023-04-05T10:56:12;9.88;;;5.65;;
5060;SDS011;2549;52.128;21.068;2023-04-05T10:58:39;9.05;;;5.63;;
5060;SDS011;2549;52.128;21.068;2023-04-05T11:01:08;10.00;;;5.57;;
5060;SDS011;2549;52.128;21.068;2023-04-05T11:03:48;8.60;;;5.30;;
5060;SDS011;2549;52.128;21.068;2023-04-05T11:06:20;6.20;;;4.75;;
5060;SDS011;2549;52.128;21.068;2023-04-05T11:09:00;6.90;;;3.50;;
5060;SDS011;2549;52.128;21.068;2023-04-05T11:11:42;10.77;;;4.60;;
5060;SDS011;2549;52.128;21.068;2023-04-05T11:17:02;6.20;;;3.70;;
5060;SDS011;2549;52.128;21.068;2023-04-05T11:22:09;6.80;;;3.50;;
5060;SDS011;2549;52.128;21.068;2023-04-05T11:27:24;5.50;;;3.78;;
5060;SDS011;2549;52.128;21.068;2023-04-05T11:29:55;11.32;;;3.85;;
5060;SDS011;2549;52.128;21.068;2023-04-05T11:32:44;4.63;;;2.47;;
5060;SDS011;2549;52.128;21.068;2023-04-05T11:35:12;5.93;;;2.85;;
5060;SDS011;2549;52.128;21.068;2023-04-05T11:43:00;4.38;;;2.60;;
5060;SDS011;2549;52.128;21.068;2023-04-05T11:45:28;3.75;;;2.85;;
5060;SDS011;2549;52.128;21.068;2023-04-05T11:48:31;3.97;;;2.40;;
5060;SDS011;2549;52.128;21.068;2023-04-05T11:50:51;8.35;;;3.13;;
5060;SDS011;2549;52.128;21.068;2023-04-05T11:53:20;13.90;;;3.05;;
5060;SDS011;2549;52.128;21.068;2023-04-05T11:55:55;3.55;;;2.75;;
5060;SDS011;2549;52.128;21.068;2023-04-05T11:58:35;8.35;;;3.38;;
5060;SDS011;2549;52.128;21.068;2023-04-05T12:01:25;4.95;;;3.08;;
5060;SDS011;2549;52.128;21.068;2023-04-05T12:03:54;4.68;;;3.05;;
5060;SDS011;2549;52.128;21.068;2023-04-05T12:06:24;7.57;;;3.10;;
5060;SDS011;2549;52.128;21.068;2023-04-05T12:08:57;3.90;;;3.20;;
5060;SDS011;2549;52.128;21.068;2023-04-05T12:11:30;4.07;;;3.35;;
5060;SDS011;2549;52.128;21.068;2023-04-05T12:14:27;5.82;;;2.95;;
5060;SDS011;2549;52.128;21.068;2023-04-05T12:17:47;7.25;;;3.40;;
5060;SDS011;2549;52.128;21.068;2023-04-05T12:20:16;2.88;;;2.63;;
5060;SDS011;2549;52.128;21.068;2023-04-05T12:22:47;9.25;;;2.97;;
5060;SDS011;2549;52.128;21.068;2023-04-05T12:25:15;4.43;;;3.00;;
5060;SDS011;2549;52.128;21.068;2023-04-05T12:27:43;4.43;;;2.45;;
5060;SDS011;2549;52.128;21.068;2023-04-05T12:30:17;5.53;;;3.20;;
5060;SDS011;2549;52.128;21.068;2023-04-05T12:36:30;5.40;;;3.47;;
5060;SDS011;2549;52.128;21.068;2023-04-05T12:38:57;8.43;;;3.10;;
5060;SDS011;2549;52.128;21.068;2023-04-05T12:41:31;7.93;;;3.17;;
5060;SDS011;2549;52.128;21.068;2023-04-05T12:47:49;3.17;;;2.50;;
5060;SDS011;2549;52.128;21.068;2023-04-05T12:50:17;7.57;;;2.90;;
5060;SDS011;2549;52.128;21.068;2023-04-05T12:52:51;5.20;;;3.10;;
5060;SDS011;2549;52.128;21.068;2023-04-05T12:55:22;7.53;;;3.80;;
5060;SDS011;2549;52.128;21.068;2023-04-05T12:57:50;3.22;;;2.92;;
5060;SDS011;2549;52.128;21.068;2023-04-05T13:00:18;7.97;;;3.35;;
5060;SDS011;2549;52.128;21.068;2023-04-05T13:02:53;8.77;;;3.38;;
5060;SDS011;2549;52.128;21.068;2023-04-05T13:05:22;6.45;;;2.92;;
5060;SDS011;2549;52.128;21.068;2023-04-05T13:07:53;15.57;;;3.50;;
5060;SDS011;2549;52.128;21.068;2023-04-05T13:10:21;8.82;;;2.80;;
5060;SDS011;2549;52.128;21.068;2023-04-05T13:12:49;6.03;;;2.63;;
5060;SDS011;2549;52.128;21.068;2023-04-05T13:15:16;13.95;;;3.42;;
5060;SDS011;2549;52.128;21.068;2023-04-05T13:17:43;5.20;;;3.53;;
5060;SDS011;2549;52.128;21.068;2023-04-05T13:20:15;7.07;;;3.38;;
5060;SDS011;2549;52.128;21.068;2023-04-05T13:22:43;3.75;;;2.85;;
5060;SDS011;2549;52.128;21.068;2023-04-05T13:25:11;8.00;;;2.38;;
5060;SDS011;2549;52.128;21.068;2023-04-05T13:27:39;6.38;;;3.80;;
5060;SDS011;2549;52.128;21.068;2023-04-05T13:30:06;4.35;;;2.78;;
5060;SDS011;2549;52.128;21.068;2023-04-05T13:32:33;7.50;;;3.13;;
5060;SDS011;2549;52.128;21.068;2023-04-05T13:35:00;12.48;;;3.45;;
5060;SDS011;2549;52.128;21.068;2023-04-05T13:37:27;2.80;;;2.60;;
5060;SDS011;2549;52.128;21.068;2023-04-05T13:39:54;4.88;;;2.90;;
5060;SDS011;2549;52.128;21.068;2023-04-05T13:42:21;8.30;;;3.15;;
5060;SDS011;2549;52.128;21.068;2023-04-05T13:44:49;2.92;;;2.72;;
5060;SDS011;2549;52.128;21.068;2023-04-05T13:47:16;4.35;;;3.22;;
5060;SDS011;2549;52.128;21.068;2023-04-05T13:49:42;4.40;;;2.95;;
5060;SDS011;2549;52.128;21.068;2023-04-05T13:52:09;4.43;;;2.78;;
5060;SDS011;2549;52.128;21.068;2023-04-05T13:54:36;4.18;;;2.90;;
5060;SDS011;2549;52.128;21.068;2023-04-05T13:57:03;6.63;;;3.15;;
5060;SDS011;2549;52.128;21.068;2023-04-05T13:59:30;3.20;;;3.00;;
5060;SDS011;2549;52.128;21.068;2023-04-05T14:01:57;8.20;;;3.10;;
5060;SDS011;2549;52.128;21.068;2023-04-05T14:04:24;7.10;;;3.28;;
5060;SDS011;2549;52.128;21.068;2023-04-05T14:06:51;2.92;;;2.65;;
5060;SDS011;2549;52.128;21.068;2023-04-05T14:09:18;5.63;;;3.30;;
5060;SDS011;2549;52.128;21.068;2023-04-05T14:11:45;4.05;;;2.95;;
5060;SDS011;2549;52.128;21.068;2023-04-05T14:14:12;9.35;;;3.33;;
5060;SDS011;2549;52.128;21.068;2023-04-05T14:16:39;5.03;;;3.25;;
5060;SDS011;2549;52.128;21.068;2023-04-05T14:19:06;3.15;;;2.85;;
5060;SDS011;2549;52.128;21.068;2023-04-05T14:21:33;7.47;;;3.10;;
5060;SDS011;2549;52.128;21.068;2023-04-05T14:23:59;4.38;;;3.08;;
5060;SDS011;2549;52.128;21.068;2023-04-05T14:26:26;2.80;;;2.60;;
5060;SDS011;2549;52.128;21.068;2023-04-05T14:28:53;3.85;;;3.25;;
5060;SDS011;2549;52.128;21.068;2023-04-05T14:31:21;6.15;;;2.55;;
5060;SDS011;2549;52.128;21.068;2023-04-05T14:33:48;7.85;;;3.08;;
5060;SDS011;2549;52.128;21.068;2023-04-05T14:36:15;8.52;;;3.35;;
5060;SDS011;2549;52.128;21.068;2023-04-05T14:38:42;4.47;;;3.13;;
5060;SDS011;2549;52.128;21.068;2023-04-05T14:41:09;6.00;;;2.67;;
5060;SDS011;2549;52.128;21.068;2023-04-05T14:43:36;3.90;;;3.13;;
5060;SDS011;2549;52.128;21.068;2023-04-05T14:46:03;6.47;;;4.35;;
5060;SDS011;2549;52.128;21.068;2023-04-05T14:48:30;4.63;;;3.20;;
5060;SDS011;2549;52.128;21.068;2023-04-05T14:50:59;3.25;;;2.75;;
5060;SDS011;2549;52.128;21.068;2023-04-05T14:53:26;2.95;;;2.65;;
5060;SDS011;2549;52.128;21.068;2023-04-05T14:55:53;4.20;;;3.10;;
5060;SDS011;2549;52.128;21.068;2023-04-05T14:58:20;5.30;;;3.40;;
5060;SDS011;2549;52.128;21.068;2023-04-05T15:00:47;4.13;;;2.95;;
5060;SDS011;2549;52.128;21.068;2023-04-05T15:03:15;4.90;;;3.25;;
5060;SDS011;2549;52.128;21.068;2023-04-05T15:05:45;3.88;;;3.00;;
5060;SDS011;2549;52.128;21.068;2023-04-05T15:08:13;4.05;;;2.70;;
5060;SDS011;2549;52.128;21.068;2023-04-05T15:10:40;4.43;;;3.47;;
5060;SDS011;2549;52.128;21.068;2023-04-05T15:13:08;6.03;;;3.35;;
5060;SDS011;2549;52.128;21.068;2023-04-05T15:15:35;6.40;;;3.30;;
5060;SDS011;2549;52.128;21.068;2023-04-05T15:18:02;4.95;;;3.33;;
5060;SDS011;2549;52.128;21.068;2023-04-05T15:20:30;5.00;;;3.63;;
5060;SDS011;2549;52.128;21.068;2023-04-05T15:22:57;5.68;;;3.00;;
5060;SDS011;2549;52.128;21.068;2023-04-05T15:25:24;4.50;;;3.30;;
5060;SDS011;2549;52.128;21.068;2023-04-05T15:27:51;4.13;;;2.80;;
5060;SDS011;2549;52.128;21.068;2023-04-05T15:30:20;7.85;;;3.03;;
5060;SDS011;2549;52.128;21.068;2023-04-05T15:32:47;6.65;;;3.22;;
5060;SDS011;2549;52.128;21.068;2023-04-05T15:35:14;3.75;;;3.30;;
5060;SDS011;2549;52.128;21.068;2023-04-05T15:37:40;5.95;;;3.75;;
5060;SDS011;2549;52.128;21.068;2023-04-05T15:40:08;8.98;;;3.88;;
5060;SDS011;2549;52.128;21.068;2023-04-05T15:42:35;7.65;;;2.78;;
5060;SDS011;2549;52.128;21.068;2023-04-05T15:45:01;6.55;;;3.95;;
5060;SDS011;2549;52.128;21.068;2023-04-05T15:47:29;5.78;;;3.67;;
5060;SDS011;2549;52.128;21.068;2023-04-05T15:49:55;6.88;;;2.83;;
5060;SDS011;2549;52.128;21.068;2023-04-05T15:52:22;3.65;;;2.80;;